createdAt,value
2023-02-11T00:02:09.916Z,102231.16
2023-02-11T00:04:23.240Z,102231.48
2023-02-11T00:06:38.164Z,102234.04
2023-02-11T00:08:51.682Z,102231.34
2023-02-11T00:11:04.935Z,102232.18
2023-02-11T00:13:18.295Z,102238.52
2023-02-11T00:15:31.405Z,102236.66
2023-02-11T00:17:44.282Z,102236.62
2023-02-11T00:19:58.357Z,102237.44
2023-02-11T00:22:11.933Z,102238.09
2023-02-11T00:24:25.914Z,102237.42
2023-02-11T00:26:40.053Z,102240.09
2023-02-11T00:28:54.725Z,102238.58
2023-02-11T00:31:07.766Z,102239.06
2023-02-11T00:33:21.520Z,102241.53
2023-02-11T00:35:34.429Z,102241.27
2023-02-11T00:37:48.379Z,102239.84
2023-02-11T00:40:01.876Z,102241.83
2023-02-11T00:42:20.518Z,102243.70
2023-02-11T00:44:33.849Z,102241.50
2023-02-11T00:46:47.142Z,102245.73
2023-02-11T00:49:00.836Z,102244.86
2023-02-11T00:51:14.466Z,102244.00
2023-02-11T00:53:27.567Z,102245.80
2023-02-11T00:55:41.529Z,102248.94
2023-02-11T00:57:54.527Z,102250.71
2023-02-11T01:00:07.691Z,102253.63
2023-02-11T01:02:21.276Z,102254.41
2023-02-11T01:04:35.298Z,102248.83
2023-02-11T01:06:48.967Z,102247.01
2023-02-11T01:09:02.115Z,102249.65
2023-02-11T01:11:20.090Z,102253.71
2023-02-11T01:13:35.970Z,102255.67
2023-02-11T01:15:49.435Z,102254.45
2023-02-11T01:18:03.453Z,102261.70
2023-02-11T01:20:21.033Z,102260.84
2023-02-11T01:22:35.523Z,102262.29
2023-02-11T01:24:49.612Z,102265.28
2023-02-11T01:27:03.072Z,102263.94
2023-02-11T01:29:16.358Z,102261.89
2023-02-11T01:31:29.718Z,102260.38
2023-02-11T01:33:43.138Z,102258.39
2023-02-11T01:35:56.587Z,102259.98
2023-02-11T01:38:09.684Z,102258.92
2023-02-11T01:40:23.472Z,102262.67
2023-02-11T01:42:37.243Z,102261.02
2023-02-11T01:44:53.081Z,102264.88
2023-02-11T01:47:07.604Z,102262.19
2023-02-11T01:49:25.196Z,102262.02
2023-02-11T01:51:41.823Z,102261.91
2023-02-11T01:54:12.869Z,102262.55
2023-02-11T01:56:44.264Z,102268.69
2023-02-11T01:59:02.493Z,102271.70
2023-02-11T02:01:19.546Z,102271.13
2023-02-11T02:03:34.859Z,102269.71
2023-02-11T02:05:54.717Z,102272.89
2023-02-11T02:08:15.793Z,102267.64
2023-02-11T02:10:33.157Z,102271.61
2023-02-11T02:12:47.108Z,102272.11
2023-02-11T02:15:24.201Z,102275.85
2023-02-11T02:17:50.290Z,102277.61
2023-02-11T02:20:34.989Z,102279.21
2023-02-11T02:23:09.312Z,102280.63
2023-02-11T02:25:44.255Z,102283.07
2023-02-11T02:28:06.414Z,102283.16
2023-02-11T02:30:39.458Z,102284.23
2023-02-11T02:33:21.632Z,102292.14
2023-02-11T02:35:46.018Z,102295.29
2023-02-11T02:38:04.890Z,102293.22
2023-02-11T02:40:24.069Z,102296.29
2023-02-11T02:42:37.337Z,102302.25
2023-02-11T02:44:55.460Z,102305.00
2023-02-11T02:47:08.498Z,102305.09
2023-02-11T02:49:22.614Z,102306.56
2023-02-11T02:51:56.812Z,102305.85
2023-02-11T02:54:39.281Z,102304.65
2023-02-11T02:56:57.284Z,102306.10
2023-02-11T02:59:37.531Z,102308.91
2023-02-11T03:02:00.772Z,102311.91
2023-02-11T03:04:22.183Z,102315.26
2023-02-11T03:06:42.101Z,102312.95
2023-02-11T03:08:58.647Z,102318.41
2023-02-11T03:11:13.512Z,102316.13
2023-02-11T03:13:31.061Z,102314.58
2023-02-11T03:15:51.617Z,102313.05
2023-02-11T03:18:07.218Z,102315.00
2023-02-11T03:20:24.329Z,102313.45
2023-02-11T03:22:43.260Z,102323.04
2023-02-11T03:24:57.101Z,102328.57
2023-02-11T03:27:16.420Z,102332.33
2023-02-11T03:29:38.936Z,102330.98
2023-02-11T03:31:59.748Z,102332.24
2023-02-11T03:34:16.815Z,102333.90
2023-02-11T03:36:48.522Z,102335.59
2023-02-11T03:39:03.633Z,102338.85
2023-02-11T03:41:19.192Z,102338.92
2023-02-11T03:43:36.161Z,102339.45
2023-02-11T03:45:50.330Z,102340.89
2023-02-11T03:48:07.662Z,102338.45
2023-02-11T03:50:22.191Z,102337.65
2023-02-11T03:52:36.499Z,102335.48
2023-02-11T03:54:52.523Z,102340.52
2023-02-11T03:57:07.634Z,102342.93
2023-02-11T03:59:21.872Z,102348.52
2023-02-11T04:01:34.947Z,102348.08
2023-02-11T04:03:48.367Z,102347.13
2023-02-11T04:06:02.022Z,102346.12
2023-02-11T04:08:15.420Z,102342.59
2023-02-11T04:10:28.752Z,102342.09
2023-02-11T04:12:40.721Z,102344.98
2023-02-11T04:14:53.764Z,102348.23
2023-02-11T04:17:07.122Z,102350.09
2023-02-11T04:19:20.843Z,102352.30
2023-02-11T04:21:35.244Z,102352.95
2023-02-11T04:23:51.296Z,102349.20
2023-02-11T04:26:04.651Z,102344.53
2023-02-11T04:28:18.477Z,102342.58
2023-02-11T04:30:32.475Z,102347.48
2023-02-11T04:32:48.091Z,102353.62
2023-02-11T04:35:01.763Z,102355.42
2023-02-11T04:37:14.727Z,102351.14
2023-02-11T04:39:28.001Z,102347.34
2023-02-11T04:41:41.193Z,102344.64
2023-02-11T04:43:56.577Z,102348.44
2023-02-11T04:46:14.364Z,102351.35
2023-02-11T04:48:28.344Z,102347.21
2023-02-11T04:50:42.296Z,102346.98
2023-02-11T04:52:55.754Z,102349.83
2023-02-11T04:55:09.731Z,102358.05
2023-02-11T04:57:25.863Z,102354.96
2023-02-11T04:59:42.353Z,102357.70
2023-02-11T05:01:56.415Z,102358.52
2023-02-11T05:04:10.378Z,102366.70
2023-02-11T05:06:24.591Z,102364.81
2023-02-11T05:08:40.378Z,102366.25
2023-02-11T05:10:54.212Z,102370.83
2023-02-11T05:13:07.298Z,102373.70
2023-02-11T05:15:21.062Z,102378.89
2023-02-11T05:17:34.370Z,102384.64
2023-02-11T05:19:47.603Z,102391.60
2023-02-11T05:22:03.339Z,102396.14
2023-02-11T05:24:16.604Z,102397.48
2023-02-11T05:26:30.158Z,102402.85
2023-02-11T05:28:45.531Z,102403.30
2023-02-11T05:31:02.901Z,102406.17
2023-02-11T05:33:16.003Z,102409.10
2023-02-11T05:35:29.372Z,102410.92
2023-02-11T05:37:42.301Z,102416.46
2023-02-11T05:39:55.710Z,102422.33
2023-02-11T05:42:08.965Z,102424.20
2023-02-11T05:44:22.124Z,102425.02
2023-02-11T05:46:35.584Z,102424.56
2023-02-11T05:48:48.522Z,102422.48
2023-02-11T05:51:01.582Z,102427.54
2023-02-11T05:53:14.990Z,102431.14
2023-02-11T05:55:29.193Z,102434.73
2023-02-11T05:57:42.262Z,102438.30
2023-02-11T05:59:55.124Z,102443.61
2023-02-11T06:02:09.341Z,102440.82
2023-02-11T06:04:25.461Z,102444.02
2023-02-11T06:06:39.148Z,102449.15
2023-02-11T06:08:53.183Z,102446.88
2023-02-11T06:11:09.351Z,102450.80
2023-02-11T06:13:25.227Z,102452.27
2023-02-11T06:15:38.642Z,102453.33
2023-02-11T06:17:51.501Z,102449.30
2023-02-11T06:20:04.567Z,102452.29
2023-02-11T06:22:17.601Z,102457.95
2023-02-11T06:24:54.651Z,102456.05
2023-02-11T06:27:04.313Z,102457.34
2023-02-11T06:29:17.553Z,102459.14
2023-02-11T06:31:30.790Z,102462.34
2023-02-11T06:33:45.211Z,102464.24
2023-02-11T06:35:58.173Z,102462.13
2023-02-11T06:38:11.113Z,102459.28
2023-02-11T06:40:24.924Z,102454.84
2023-02-11T06:42:39.920Z,102460.43
2023-02-11T06:44:53.043Z,102460.73
2023-02-11T06:47:06.892Z,102464.19
2023-02-11T06:49:20.243Z,102460.45
2023-02-11T06:51:33.303Z,102463.61
2023-02-11T06:53:49.175Z,102460.94
2023-02-11T06:56:05.208Z,102464.95
2023-02-11T06:58:18.263Z,102467.02
2023-02-11T07:00:31.396Z,102468.58
2023-02-11T07:02:44.433Z,102466.98
2023-02-11T07:04:57.604Z,102462.39
2023-02-11T07:07:11.450Z,102462.02
2023-02-11T07:09:24.314Z,102462.54
2023-02-11T07:11:37.773Z,102462.34
2023-02-11T07:13:51.198Z,102460.20
2023-02-11T07:16:06.958Z,102459.30
2023-02-11T07:18:20.205Z,102461.04
2023-02-11T07:20:33.887Z,102461.73
2023-02-11T07:22:46.692Z,102465.60
2023-02-11T07:24:59.575Z,102463.29
2023-02-11T07:27:12.652Z,102457.11
2023-02-11T07:29:26.392Z,102455.86
2023-02-11T07:31:40.173Z,102453.20
2023-02-11T07:33:54.745Z,102454.94
2023-02-11T07:36:10.412Z,102460.54
2023-02-11T07:38:23.297Z,102461.75
2023-02-11T07:40:36.794Z,102458.77
2023-02-11T07:42:50.191Z,102453.82
2023-02-11T07:45:03.240Z,102456.52
2023-02-11T07:47:16.181Z,102458.52
2023-02-11T07:49:28.932Z,102458.54
2023-02-11T07:51:41.934Z,102449.61
2023-02-11T07:53:55.424Z,102453.71
2023-02-11T07:56:10.537Z,102449.88
2023-02-11T07:58:23.831Z,102456.48
2023-02-11T08:00:37.225Z,102455.29
2023-02-11T08:02:50.632Z,102453.73
2023-02-11T08:05:03.801Z,102456.03
2023-02-11T08:07:18.561Z,102458.66
2023-02-11T08:09:34.187Z,102459.77
2023-02-11T08:11:47.779Z,102454.69
2023-02-11T08:14:02.060Z,102457.55
2023-02-11T08:16:20.568Z,102453.70
2023-02-11T08:18:33.883Z,102454.64
2023-02-11T08:20:47.162Z,102456.98
2023-02-11T08:23:00.240Z,102456.15
2023-02-11T08:25:15.308Z,102454.46
2023-02-11T08:27:29.446Z,102455.05
2023-02-11T08:29:42.806Z,102454.40
2023-02-11T08:31:56.864Z,102453.23
2023-02-11T08:34:11.157Z,102451.35
2023-02-11T08:36:25.462Z,102446.16
2023-02-11T08:38:38.262Z,102444.27
2023-02-11T08:40:51.787Z,102442.58
2023-02-11T08:43:07.902Z,102438.59
2023-02-11T08:45:21.438Z,102436.90
2023-02-11T08:47:34.457Z,102442.60
2023-02-11T08:49:47.672Z,102447.05
2023-02-11T08:52:05.298Z,102455.91
2023-02-11T08:54:18.927Z,102458.39
2023-02-11T08:56:33.030Z,102461.80
2023-02-11T08:58:46.140Z,102469.06
2023-02-11T09:00:59.605Z,102471.40
2023-02-11T09:03:13.713Z,102476.59
2023-02-11T09:05:26.707Z,102475.56
2023-02-11T09:07:59.297Z,102486.02
2023-02-11T09:10:14.362Z,102494.32
2023-02-11T09:12:27.261Z,102496.42
2023-02-11T09:14:40.246Z,102495.23
2023-02-11T09:16:54.482Z,102497.95
2023-02-11T09:19:08.807Z,102494.45
2023-02-11T09:21:22.906Z,102490.55
2023-02-11T09:23:36.130Z,102488.61
2023-02-11T09:25:49.609Z,102492.29
2023-02-11T09:28:03.166Z,102492.61
2023-02-11T09:30:20.319Z,102495.42
2023-02-11T09:32:33.348Z,102490.52
2023-02-11T09:34:46.518Z,102488.44
2023-02-11T09:36:59.513Z,102493.75
2023-02-11T09:39:16.179Z,102496.45
2023-02-11T09:41:43.796Z,102502.13
2023-02-11T09:43:59.889Z,102504.10
2023-02-11T09:46:16.696Z,102512.96
2023-02-11T09:48:30.028Z,102516.18
2023-02-11T09:50:47.019Z,102517.11
2023-02-11T09:53:03.998Z,102512.05
2023-02-11T09:55:25.163Z,102515.46
2023-02-11T09:57:40.385Z,102510.09
2023-02-11T09:59:53.505Z,102514.34
2023-02-11T10:02:14.573Z,102509.46
2023-02-11T10:04:45.157Z,102511.61
2023-02-11T10:07:03.576Z,102514.80
2023-02-11T10:09:38.273Z,102525.71
2023-02-11T10:12:02.560Z,102529.43
2023-02-11T10:14:39.853Z,102526.13
2023-02-11T10:17:05.807Z,102519.83
2023-02-11T10:19:46.473Z,102516.37
2023-02-11T10:22:10.263Z,102515.88
2023-02-11T10:24:24.013Z,102510.45
2023-02-11T10:26:39.723Z,102518.73
2023-02-11T10:28:56.112Z,102529.66
2023-02-11T10:31:12.548Z,102537.92
2023-02-11T10:33:33.957Z,102540.23
2023-02-11T10:35:46.871Z,102544.46
2023-02-11T10:38:00.092Z,102535.02
2023-02-11T10:40:20.428Z,102524.67
2023-02-11T10:42:33.582Z,102526.64
2023-02-11T10:44:55.993Z,102525.06
2023-02-11T10:47:22.322Z,102520.15
2023-02-11T10:49:43.835Z,102520.71
2023-02-11T10:52:15.744Z,102523.20
2023-02-11T10:54:28.627Z,102522.00
2023-02-11T10:56:44.105Z,102517.63
2023-02-11T10:59:06.005Z,102515.34
2023-02-11T11:01:24.699Z,102517.27
2023-02-11T11:03:42.271Z,102517.77
2023-02-11T11:05:58.459Z,102517.06
2023-02-11T11:08:14.172Z,102524.07
2023-02-11T11:10:38.022Z,102530.21
2023-02-11T11:12:55.124Z,102528.64
2023-02-11T11:15:21.004Z,102528.81
2023-02-11T11:17:40.327Z,102530.09
2023-02-11T11:19:53.303Z,102528.70
2023-02-11T11:22:08.033Z,102532.06
2023-02-11T11:24:26.966Z,102539.10
2023-02-11T11:26:49.726Z,102536.84
2023-02-11T11:29:10.563Z,102537.92
2023-02-11T11:31:27.862Z,102543.75
2023-02-11T11:33:45.087Z,102544.11
2023-02-11T11:36:08.402Z,102548.17
2023-02-11T11:38:22.102Z,102540.46
2023-02-11T11:40:36.091Z,102544.18
2023-02-11T11:42:49.699Z,102545.60
2023-02-11T11:45:26.104Z,102542.65
2023-02-11T11:47:48.027Z,102536.53
2023-02-11T11:50:27.092Z,102536.00
2023-02-11T11:52:52.526Z,102536.89
2023-02-11T11:55:15.147Z,102535.15
2023-02-11T11:57:32.087Z,102537.27
2023-02-11T11:59:45.459Z,102543.61
2023-02-11T12:02:17.987Z,102547.85
2023-02-11T12:04:59.718Z,102553.64
2023-02-11T12:07:26.037Z,102555.58
2023-02-11T12:09:49.097Z,102554.18
2023-02-11T12:12:20.816Z,102554.01
2023-02-11T12:14:42.623Z,102554.75
2023-02-11T12:17:06.174Z,102549.69
2023-02-11T12:19:57.515Z,102548.14
2023-02-11T12:22:33.955Z,102544.30
2023-02-11T12:25:09.879Z,102536.56
2023-02-11T12:27:29.738Z,102527.61
2023-02-11T12:29:57.020Z,102527.96
2023-02-11T12:32:24.607Z,102526.38
2023-02-11T12:34:54.525Z,102523.40
2023-02-11T12:37:19.823Z,102517.45
2023-02-11T12:39:43.887Z,102517.61
2023-02-11T12:42:34.827Z,102514.63
2023-02-11T12:45:05.247Z,102515.34
2023-02-11T12:47:29.008Z,102511.67
2023-02-11T12:50:01.489Z,102512.91
2023-02-11T12:52:42.490Z,102507.30
2023-02-11T12:55:03.581Z,102503.79
2023-02-11T12:57:22.095Z,102496.91
2023-02-11T12:59:47.970Z,102492.71
2023-02-11T13:02:04.669Z,102495.02
2023-02-11T13:04:24.551Z,102493.98
2023-02-11T13:06:45.233Z,102494.16
2023-02-11T13:09:03.680Z,102497.31
2023-02-11T13:11:21.230Z,102493.83
2023-02-11T13:13:39.046Z,102496.11
2023-02-11T13:15:55.308Z,102490.67
2023-02-11T13:18:19.345Z,102491.06
2023-02-11T13:20:45.032Z,102492.29
2023-02-11T13:23:09.113Z,102489.84
2023-02-11T13:25:34.164Z,102493.73
2023-02-11T13:27:59.610Z,102490.95
2023-02-11T13:30:31.791Z,102492.02
2023-02-11T13:33:20.110Z,102498.55
2023-02-11T13:35:38.666Z,102495.76
2023-02-11T13:37:54.871Z,102497.70
2023-02-11T13:40:11.117Z,102495.41
2023-02-11T13:42:24.183Z,102494.89
2023-02-11T13:44:39.866Z,102493.15
2023-02-11T13:46:59.434Z,102493.50
2023-02-11T13:49:24.607Z,102492.83
2023-02-11T13:51:46.258Z,102491.94
2023-02-11T13:54:01.502Z,102489.65
2023-02-11T13:56:33.324Z,102486.00
2023-02-11T13:58:54.508Z,102483.05
2023-02-11T14:01:07.873Z,102488.17
2023-02-11T14:03:53.687Z,102487.14
2023-02-11T14:06:42.783Z,102486.09
2023-02-11T14:09:13.669Z,102490.48
2023-02-11T14:11:50.558Z,102488.73
2023-02-11T14:14:26.669Z,102491.05
2023-02-11T14:16:59.753Z,102491.75
2023-02-11T14:19:14.821Z,102492.98
2023-02-11T14:21:34.289Z,102497.74
2023-02-11T14:23:47.517Z,102496.70
2023-02-11T14:26:19.566Z,102499.69
2023-02-11T14:28:35.418Z,102502.31
2023-02-11T14:31:02.304Z,102502.67
2023-02-11T14:33:43.351Z,102502.67
2023-02-11T14:36:11.472Z,102492.88
2023-02-11T14:38:35.321Z,102496.40
2023-02-11T14:40:56.324Z,102490.45
2023-02-11T14:43:19.916Z,102492.77
2023-02-11T14:45:33.572Z,102496.11
2023-02-11T14:47:55.662Z,102497.19
2023-02-11T14:50:10.034Z,102500.35
2023-02-11T14:52:32.178Z,102503.71
2023-02-11T14:54:45.591Z,102505.64
2023-02-11T14:57:12.411Z,102508.61
2023-02-11T14:59:27.822Z,102505.30
2023-02-11T15:01:48.508Z,102508.27
2023-02-11T15:04:02.625Z,102509.34
2023-02-11T15:06:24.061Z,102507.75
2023-02-11T15:08:38.722Z,102508.80
2023-02-11T15:10:52.350Z,102510.56
2023-02-11T15:13:08.132Z,102510.39
2023-02-11T15:15:21.452Z,102510.39
2023-02-11T15:17:36.429Z,102517.39
2023-02-11T15:19:53.759Z,102519.12
2023-02-11T15:22:07.882Z,102527.73
2023-02-11T15:24:31.352Z,102535.08
2023-02-11T15:26:44.673Z,102544.55
2023-02-11T15:28:57.455Z,102546.48
2023-02-11T15:31:18.526Z,102549.83
2023-02-11T15:33:33.582Z,102553.34
2023-02-11T15:35:46.664Z,102561.75
2023-02-11T15:38:00.563Z,102565.60
2023-02-11T15:40:20.093Z,102571.91
2023-02-11T15:42:50.692Z,102579.45
2023-02-11T15:45:30.224Z,102582.61
2023-02-11T15:47:45.845Z,102584.71
2023-02-11T15:49:58.785Z,102591.91
2023-02-11T15:52:13.702Z,102594.38
2023-02-11T15:54:28.563Z,102595.06
2023-02-11T15:56:46.547Z,102597.17
2023-02-11T15:59:01.801Z,102597.54
2023-02-11T16:01:16.445Z,102597.55
2023-02-11T16:03:33.822Z,102590.34
2023-02-11T16:05:47.702Z,102589.84
2023-02-11T16:08:01.451Z,102586.50
2023-02-11T16:10:27.885Z,102592.29
2023-02-11T16:12:41.401Z,102597.36
2023-02-11T16:14:54.525Z,102597.00
2023-02-11T16:17:11.483Z,102595.45
2023-02-11T16:19:26.642Z,102590.70
2023-02-11T16:21:46.451Z,102587.88
2023-02-11T16:24:01.021Z,102589.63
2023-02-11T16:26:24.766Z,102593.64
2023-02-11T16:28:38.970Z,102594.84
2023-02-11T16:30:55.022Z,102594.65
2023-02-11T16:33:08.743Z,102598.84
2023-02-11T16:35:22.050Z,102595.50
2023-02-11T16:37:36.642Z,102593.20
2023-02-11T16:39:49.757Z,102591.95
2023-02-11T16:42:04.271Z,102592.98
2023-02-11T16:44:18.132Z,102585.23
2023-02-11T16:46:31.276Z,102581.69
2023-02-11T16:48:44.388Z,102579.89
2023-02-11T16:50:57.749Z,102578.81
2023-02-11T16:53:13.261Z,102581.05
2023-02-11T16:55:26.295Z,102586.81
2023-02-11T16:57:39.181Z,102584.30
2023-02-11T16:59:52.399Z,102581.95
2023-02-11T17:02:05.612Z,102584.33
2023-02-11T17:04:24.056Z,102582.86
2023-02-11T17:06:37.991Z,102581.55
2023-02-11T17:08:51.219Z,102576.56
2023-02-11T17:11:04.208Z,102573.32
2023-02-11T17:13:17.047Z,102577.07
2023-02-11T17:15:30.099Z,102579.96
2023-02-11T17:17:43.027Z,102583.20
2023-02-11T17:19:55.837Z,102578.54
2023-02-11T17:22:09.297Z,102570.34
2023-02-11T17:24:23.826Z,102567.76
2023-02-11T17:26:37.227Z,102573.45
2023-02-11T17:28:50.502Z,102576.34
2023-02-11T17:31:03.538Z,102570.23
2023-02-11T17:33:17.236Z,102570.80
2023-02-11T17:35:30.629Z,102568.56
2023-02-11T17:37:43.624Z,102570.55
2023-02-11T17:39:56.836Z,102566.55
2023-02-11T17:42:10.259Z,102561.67
2023-02-11T17:44:24.684Z,102560.50
2023-02-11T17:46:40.264Z,102563.55
2023-02-11T17:48:54.376Z,102569.23
2023-02-11T17:51:09.848Z,102568.22
2023-02-11T17:53:22.836Z,102567.05
2023-02-11T17:55:39.569Z,102566.59
2023-02-11T17:57:52.650Z,102577.20
2023-02-11T18:00:06.667Z,102578.85
2023-02-11T18:02:25.638Z,102583.17
2023-02-11T18:04:38.778Z,102580.98
2023-02-11T18:06:54.809Z,102578.06
2023-02-11T18:09:08.630Z,102579.05
2023-02-11T18:11:23.729Z,102577.89
2023-02-11T18:13:36.708Z,102577.08
2023-02-11T18:15:49.960Z,102569.77
2023-02-11T18:18:03.557Z,102565.25
2023-02-11T18:20:20.617Z,102555.27
2023-02-11T18:22:37.727Z,102551.80
2023-02-11T18:24:54.169Z,102550.64
2023-02-11T18:27:06.974Z,102546.86
2023-02-11T18:29:20.638Z,102553.61
2023-02-11T18:31:34.177Z,102554.58
2023-02-11T18:33:49.196Z,102550.91
2023-02-11T18:36:02.651Z,102550.06
2023-02-11T18:38:15.703Z,102544.98
2023-02-11T18:40:29.174Z,102534.29
2023-02-11T18:42:42.643Z,102533.85
2023-02-11T18:44:56.193Z,102536.45
2023-02-11T18:47:09.095Z,102536.46
2023-02-11T18:49:22.234Z,102520.77
2023-02-11T18:51:35.126Z,102524.34
2023-02-11T18:53:48.541Z,102532.48
2023-02-11T18:56:02.647Z,102536.05
2023-02-11T18:58:16.587Z,102535.73
2023-02-11T19:00:30.564Z,102532.96
2023-02-11T19:02:43.846Z,102532.05
2023-02-11T19:04:57.894Z,102531.76
2023-02-11T19:07:11.278Z,102533.70
2023-02-11T19:09:26.126Z,102537.63
2023-02-11T19:11:55.624Z,102535.20
2023-02-11T19:14:11.415Z,102527.25
2023-02-11T19:16:24.458Z,102525.07
2023-02-11T19:18:39.804Z,102521.38
2023-02-11T19:20:52.675Z,102528.19
2023-02-11T19:23:06.269Z,102535.52
2023-02-11T19:25:19.732Z,102545.06
2023-02-11T19:27:33.526Z,102544.28
2023-02-11T19:29:47.225Z,102536.83
2023-02-11T19:32:00.372Z,102530.66
2023-02-11T19:34:14.761Z,102527.53
2023-02-11T19:36:27.702Z,102530.70
2023-02-11T19:38:41.649Z,102524.95
2023-02-11T19:41:01.573Z,102524.83
2023-02-11T19:43:15.928Z,102516.34
2023-02-11T19:45:29.494Z,102509.41
2023-02-11T19:47:42.496Z,102510.20
2023-02-11T19:49:55.921Z,102507.77
2023-02-11T19:52:09.053Z,102507.13
2023-02-11T19:54:22.625Z,102515.17
2023-02-11T19:56:39.004Z,102509.52
2023-02-11T19:58:51.955Z,102505.13
2023-02-11T20:01:11.146Z,102499.98
2023-02-11T20:03:23.944Z,102512.53
2023-02-11T20:05:37.765Z,102520.64
2023-02-11T20:07:50.861Z,102516.42
2023-02-11T20:10:04.055Z,102513.64
2023-02-11T20:12:17.020Z,102504.65
2023-02-11T20:14:30.747Z,102504.56
2023-02-11T20:16:49.214Z,102498.07
2023-02-11T20:19:02.678Z,102494.81
2023-02-11T20:21:18.357Z,102490.56
2023-02-11T20:23:34.119Z,102489.09
2023-02-11T20:25:47.537Z,102486.98
2023-02-11T20:28:00.960Z,102476.55
2023-02-11T20:30:16.261Z,102472.00
2023-02-11T20:32:32.334Z,102474.59
2023-02-11T20:34:46.063Z,102472.70
2023-02-11T20:36:59.369Z,102472.50
2023-02-11T20:39:18.271Z,102468.19
2023-02-11T20:41:35.600Z,102469.23
2023-02-11T20:43:49.897Z,102460.85
2023-02-11T20:46:08.170Z,102462.89
2023-02-11T20:48:23.618Z,102456.55
2023-02-11T20:50:37.049Z,102454.88
2023-02-11T20:52:50.257Z,102458.34
2023-02-11T20:55:03.848Z,102461.66
2023-02-11T20:57:18.687Z,102462.95
2023-02-11T20:59:32.811Z,102461.63
2023-02-11T21:01:48.168Z,102462.55
2023-02-11T21:04:03.376Z,102461.98
2023-02-11T21:06:16.907Z,102463.47
2023-02-11T21:08:30.031Z,102457.96
2023-02-11T21:10:43.669Z,102456.30
2023-02-11T21:12:56.891Z,102452.88
2023-02-11T21:15:13.904Z,102453.42
2023-02-11T21:17:28.879Z,102453.05
2023-02-11T21:19:42.699Z,102454.37
2023-02-11T21:21:56.503Z,102455.98
2023-02-11T21:24:10.005Z,102449.63
2023-02-11T21:26:23.091Z,102440.42
2023-02-11T21:28:39.120Z,102445.31
2023-02-11T21:30:56.672Z,102447.02
2023-02-11T21:33:10.786Z,102452.95
2023-02-11T21:35:24.044Z,102453.67
2023-02-11T21:37:37.325Z,102451.01
2023-02-11T21:39:51.335Z,102451.25
2023-02-11T21:42:06.037Z,102450.48
2023-02-11T21:44:24.314Z,102448.11
2023-02-11T21:46:40.228Z,102432.38
2023-02-11T21:48:53.614Z,102422.77
2023-02-11T21:51:10.776Z,102425.89
2023-02-11T21:53:24.806Z,102424.73
2023-02-11T21:55:37.695Z,102425.61
2023-02-11T21:57:50.546Z,102427.81
2023-02-11T22:00:03.596Z,102428.02
2023-02-11T22:02:18.216Z,102424.48
2023-02-11T22:04:31.946Z,102417.95
2023-02-11T22:06:44.986Z,102414.25
2023-02-11T22:08:59.342Z,102416.55
2023-02-11T22:11:14.120Z,102417.08
2023-02-11T22:13:27.688Z,102421.66
2023-02-11T22:15:40.660Z,102423.12
2023-02-11T22:17:53.719Z,102423.06
2023-02-11T22:20:07.224Z,102422.28
2023-02-11T22:22:20.888Z,102423.25
2023-02-11T22:24:36.989Z,102420.05
2023-02-11T22:26:50.077Z,102417.16
2023-02-11T22:29:03.230Z,102415.84
2023-02-11T22:31:18.571Z,102412.66
2023-02-11T22:33:32.882Z,102409.35
2023-02-11T22:35:45.880Z,102411.38
2023-02-11T22:37:59.030Z,102414.80
2023-02-11T22:40:13.674Z,102417.19
2023-02-11T22:42:30.844Z,102417.58
2023-02-11T22:44:45.752Z,102418.13
2023-02-11T22:46:59.588Z,102419.27
2023-02-11T22:49:13.573Z,102423.06
2023-02-11T22:51:28.687Z,102421.75
2023-02-11T22:53:42.364Z,102423.23
2023-02-11T22:55:56.158Z,102423.98
2023-02-11T22:58:09.688Z,102424.44
2023-02-11T23:00:27.352Z,102429.76
2023-02-11T23:02:41.333Z,102423.88
2023-02-11T23:04:54.580Z,102427.31
2023-02-11T23:07:07.704Z,102432.83
2023-02-11T23:09:20.907Z,102426.49
2023-02-11T23:11:35.429Z,102417.04
2023-02-11T23:13:50.010Z,102417.01
2023-02-11T23:16:03.157Z,102418.86
2023-02-11T23:18:16.880Z,102420.49
2023-02-11T23:20:29.918Z,102418.91
2023-02-11T23:22:42.738Z,102411.00
2023-02-11T23:24:55.785Z,102408.25
2023-02-11T23:27:08.889Z,102409.41
2023-02-11T23:29:22.433Z,102413.67
2023-02-11T23:31:38.953Z,102415.45
2023-02-11T23:33:53.710Z,102409.77
2023-02-11T23:36:06.888Z,102404.04
2023-02-11T23:38:19.950Z,102409.19
2023-02-11T23:40:33.033Z,102417.83
2023-02-11T23:42:46.852Z,102413.75
2023-02-11T23:44:59.862Z,102413.36
2023-02-11T23:47:13.550Z,102407.31
2023-02-11T23:49:26.706Z,102399.11
2023-02-11T23:51:39.836Z,102397.39
2023-02-11T23:53:53.802Z,102409.91
2023-02-11T23:56:09.507Z,102405.66
2023-02-11T23:58:28.975Z,102402.90
